Time,TemperatureF,DewpointF,PressureIn,WindDirection,WindDirectionDegrees,WindSpeedMPH,WindSpeedGustMPH,Humidity,HourlyPrecipIn,Conditions,Clouds,dailyrainin,SoftwareType,DateUTC
2013-02-17 00:01:00,70.5,62.6,30.01,SSE,147,0.0,3.0,76,0.04,,,0.00,WeatherDisplay:10.37,2013-02-16 13:01:00,
2013-02-17 00:06:00,70.5,62.9,30.00,SSW,207,0.0,2.0,77,0.02,,,0.02,WeatherDisplay:10.37,2013-02-16 13:06:00,
2013-02-17 00:11:00,70.3,62.8,30.00,SSW,200,0.0,0.0,77,0.02,RA,,0.04,WeatherDisplay:10.37,2013-02-16 13:11:00,
2013-02-17 00:16:00,70.3,63.2,30.00,South,179,0.0,0.0,78,0.00,RA,,0.04,WeatherDisplay:10.37,2013-02-16 13:16:00,
2013-02-17 00:21:00,70.3,63.2,30.00,SSW,197,0.0,2.0,78,0.00,,,0.04,WeatherDisplay:10.37,2013-02-16 13:21:00,
2013-02-17 00:26:00,70.3,63.2,30.00,SW,228,0.0,0.0,78,0.00,,,0.04,WeatherDisplay:10.37,2013-02-16 13:26:00,
2013-02-17 00:31:00,70.3,63.2,29.99,SW,221,0.0,2.0,78,0.00,,,0.04,WeatherDisplay:10.37,2013-02-16 13:31:00,
2013-02-17 00:36:00,70.3,63.5,30.00,SSW,193,0.0,0.0,79,0.00,,,0.04,WeatherDisplay:10.37,2013-02-16 13:36:00,
2013-02-17 00:41:00,70.3,63.5,29.99,SSW,207,0.0,0.0,79,0.00,CLR,,0.04,WeatherDisplay:10.37,2013-02-16 13:41:00,
2013-02-17 00:46:00,70.3,63.5,29.99,SW,218,0.0,0.0,79,0.00,CLR,,0.04,WeatherDisplay:10.37,2013-02-16 13:46:00,
2013-02-17 00:51:00,70.2,63.0,29.99,SSW,205,0.0,0.0,78,0.00,CLR,,0.04,WeatherDisplay:10.37,2013-02-16 13:51:00,
2013-02-17 00:56:00,70.0,62.8,29.99,SSW,206,0.0,0.0,78,0.00,CLR,,0.04,WeatherDisplay:10.37,2013-02-16 13:56:00,
2013-02-17 01:01:00,70.0,63.2,29.99,SSW,213,0.0,0.0,79,0.00,,,0.04,WeatherDisplay:10.37,2013-02-16 14:01:00,
2013-02-17 01:06:00,69.8,63.0,29.99,SW,228,0.0,0.0,79,0.00,,,0.04,WeatherDisplay:10.37,2013-02-16 14:06:00,
2013-02-17 01:11:00,69.8,63.0,29.99,SW,225,0.0,0.0,79,0.00,CLR,,0.04,WeatherDisplay:10.37,2013-02-16 14:11:00,
2013-02-17 01:16:00,69.8,63.3,29.99,SW,218,0.0,1.0,80,0.00,CLR,,0.04,WeatherDisplay:10.37,2013-02-16 14:16:00,
2013-02-17 01:26:00,69.6,63.2,29.99,SW,217,0.0,0.0,80,0.00,CLR,,0.04,WeatherDisplay:10.37,2013-02-16 14:26:00,
2013-02-17 01:31:00,69.6,63.2,29.99,SSW,199,0.0,2.0,80,0.00,CLR,,0.04,WeatherDisplay:10.37,2013-02-16 14:31:00,
2013-02-17 01:36:00,69.6,63.2,29.98,SSW,205,0.0,1.0,80,0.00,CLR,,0.04,WeatherDisplay:10.37,2013-02-16 14:36:00,
2013-02-17 01:41:00,69.6,63.2,29.98,SSW,209,0.0,0.0,80,0.00,CLR,,0.04,WeatherDisplay:10.37,2013-02-16 14:41:00,
2013-02-17 01:46:00,69.6,63.2,29.98,SSW,208,0.0,0.0,80,0.00,CLR,,0.04,WeatherDisplay:10.37,2013-02-16 14:46:00,
2013-02-17 01:51:00,69.4,63.0,29.97,SSW,212,0.0,0.0,80,0.00,CLR,,0.04,WeatherDisplay:10.37,2013-02-16 14:51:00,
2013-02-17 01:56:00,69.4,63.0,29.97,SSW,196,0.0,0.0,80,0.00,CLR,,0.04,WeatherDisplay:10.37,2013-02-16 14:56:00,
2013-02-17 02:01:00,69.3,62.8,29.97,SSW,196,0.0,0.0,80,0.00,CLR,,0.04,WeatherDisplay:10.37,2013-02-16 15:01:00,
2013-02-17 02:06:00,69.1,62.6,29.97,SSW,210,0.0,0.0,80,0.00,CLR,,0.04,WeatherDisplay:10.37,2013-02-16 15:06:00,
2013-02-17 02:11:00,69.0,62.6,29.97,SSW,201,0.0,0.0,80,0.00,CLR,,0.04,WeatherDisplay:10.37,2013-02-16 15:11:00,
2013-02-17 02:16:00,68.8,62.4,29.97,South,191,0.0,0.0,80,0.00,CLR,,0.04,WeatherDisplay:10.37,2013-02-16 15:16:00,
2013-02-17 02:21:00,68.7,62.3,29.97,SSW,194,0.0,0.0,80,0.00,CLR,,0.04,WeatherDisplay:10.37,2013-02-16 15:21:00,
2013-02-17 02:26:00,68.7,62.3,29.97,SSW,197,0.0,0.0,80,0.00,CLR,,0.04,WeatherDisplay:10.37,2013-02-16 15:26:00,
2013-02-17 02:31:00,68.7,62.6,29.96,SSW,204,0.0,0.0,81,0.00,CLR,,0.04,WeatherDisplay:10.37,2013-02-16 15:31:00,
2013-02-17 02:36:00,68.5,62.5,29.97,SW,223,0.0,0.0,81,0.00,CLR,,0.04,WeatherDisplay:10.37,2013-02-16 15:36:00,
2013-02-17 02:41:00,68.5,62.5,29.97,SW,228,0.0,0.0,81,0.00,CLR,,0.04,WeatherDisplay:10.37,2013-02-16 15:41:00,
2013-02-17 02:46:00,68.5,62.5,29.97,SSW,206,0.0,0.0,81,0.00,CLR,,0.04,WeatherDisplay:10.37,2013-02-16 15:46:00,
2013-02-17 02:51:00,68.4,62.3,29.96,South,191,0.0,0.0,81,0.00,CLR,,0.04,WeatherDisplay:10.37,2013-02-16 15:51:00,
2013-02-17 02:56:00,68.4,62.3,29.96,SSW,194,0.0,0.0,81,0.00,CLR,,0.04,WeatherDisplay:10.37,2013-02-16 15:56:00,
2013-02-17 03:01:00,68.4,62.3,29.96,SW,216,0.0,0.0,81,0.00,CLR,,0.04,WeatherDisplay:10.37,2013-02-16 16:01:00,
2013-02-17 03:06:00,68.2,62.2,29.96,SSW,213,0.0,0.0,81,0.00,CLR,,0.04,WeatherDisplay:10.37,2013-02-16 16:06:00,
2013-02-17 03:11:00,68.2,62.1,29.97,SSW,208,0.0,0.0,81,0.00,CLR,,0.04,WeatherDisplay:10.37,2013-02-16 16:11:00,
2013-02-17 03:16:00,68.2,62.1,29.95,SW,219,0.0,0.0,81,0.00,CLR,,0.04,WeatherDisplay:10.37,2013-02-16 16:16:00,
2013-02-17 03:21:00,68.2,62.1,29.96,WSW,242,0.0,0.0,81,0.00,CLR,,0.04,WeatherDisplay:10.37,2013-02-16 16:21:00,
2013-02-17 03:26:00,68.2,62.1,29.96,West,261,0.0,0.0,81,0.00,CLR,,0.04,WeatherDisplay:10.37,2013-02-16 16:26:00,
2013-02-17 03:31:00,68.2,62.1,29.96,SW,229,0.0,0.0,81,0.00,CLR,,0.04,WeatherDisplay:10.37,2013-02-16 16:31:00,
2013-02-17 03:41:00,67.8,61.8,29.96,SSW,205,0.0,0.0,81,0.00,CLR,,0.04,WeatherDisplay:10.37,2013-02-16 16:41:00,
2013-02-17 03:46:00,67.6,61.6,29.96,SSW,193,0.0,0.0,81,0.00,CLR,,0.04,WeatherDisplay:10.37,2013-02-16 16:46:00,
2013-02-17 03:51:00,67.6,61.6,29.96,SSW,199,0.0,0.0,81,0.00,CLR,,0.04,WeatherDisplay:10.37,2013-02-16 16:51:00,
2013-02-17 03:56:00,67.5,61.4,29.96,SSW,196,0.0,0.0,81,0.00,CLR,,0.04,WeatherDisplay:10.37,2013-02-16 16:56:00,
2013-02-17 04:01:00,67.3,61.2,29.95,South,185,0.0,0.0,81,0.00,CLR,,0.04,WeatherDisplay:10.37,2013-02-16 17:01:00,
2013-02-17 04:06:00,67.3,61.2,29.96,SSW,196,0.0,0.0,81,0.00,CLR,,0.04,WeatherDisplay:10.37,2013-02-16 17:06:00,
2013-02-17 04:11:00,67.1,61.1,29.95,SW,214,0.0,0.0,81,0.00,CLR,,0.04,WeatherDisplay:10.37,2013-02-16 17:11:00,
2013-02-17 04:16:00,67.0,61.0,29.96,SW,215,0.0,0.0,81,0.00,CLR,,0.04,WeatherDisplay:10.37,2013-02-16 17:16:00,
2013-02-17 04:21:00,66.9,60.9,29.96,South,190,0.0,0.0,81,0.00,CLR,,0.04,WeatherDisplay:10.37,2013-02-16 17:21:00,
2013-02-17 04:26:00,66.9,61.2,29.96,SSW,192,0.0,0.0,82,0.00,CLR,,0.04,WeatherDisplay:10.37,2013-02-16 17:26:00,
2013-02-17 04:31:00,66.9,61.2,29.96,SSW,200,0.0,0.0,82,0.00,CLR,,0.04,WeatherDisplay:10.37,2013-02-16 17:31:00,
2013-02-17 04:36:00,66.9,60.9,29.96,SW,217,0.0,0.0,81,0.00,CLR,,0.04,WeatherDisplay:10.37,2013-02-16 17:36:00,
2013-02-17 04:41:00,66.7,60.7,29.96,SSW,212,0.0,0.0,81,0.00,CLR,,0.04,WeatherDisplay:10.37,2013-02-16 17:41:00,
2013-02-17 04:46:00,66.7,61.1,29.95,SW,225,0.0,0.0,82,0.00,CLR,,0.04,WeatherDisplay:10.37,2013-02-16 17:46:00,
2013-02-17 04:51:00,66.7,61.1,29.96,SW,236,0.0,0.0,82,0.00,CLR,,0.04,WeatherDisplay:10.37,2013-02-16 17:51:00,
2013-02-17 04:56:00,66.7,61.1,29.96,SW,225,0.0,0.0,82,0.00,CLR,,0.04,WeatherDisplay:10.37,2013-02-16 17:56:00,
2013-02-17 05:01:00,66.7,61.1,29.96,SW,215,0.0,0.0,82,0.00,CLR,,0.04,WeatherDisplay:10.37,2013-02-16 18:01:00,
2013-02-17 05:06:00,66.7,61.1,29.96,SW,220,0.0,0.0,82,0.00,CLR,,0.04,WeatherDisplay:10.37,2013-02-16 18:06:00,
2013-02-17 05:11:00,66.7,61.1,29.96,SW,220,0.0,0.0,82,0.00,CLR,,0.04,WeatherDisplay:10.37,2013-02-16 18:11:00,
2013-02-17 05:16:00,66.7,61.1,29.96,SSW,213,0.0,0.0,82,0.00,CLR,,0.04,WeatherDisplay:10.37,2013-02-16 18:16:00,
2013-02-17 05:21:00,66.7,61.1,29.96,SSW,201,0.0,0.0,82,0.00,CLR,,0.04,WeatherDisplay:10.37,2013-02-16 18:21:00,
2013-02-17 05:26:00,66.6,60.9,29.96,South,187,0.0,0.0,82,0.00,CLR,,0.04,WeatherDisplay:10.37,2013-02-16 18:26:00,
2013-02-17 05:31:00,66.5,60.8,29.97,South,191,0.0,0.0,82,0.00,CLR,,0.04,WeatherDisplay:10.37,2013-02-16 18:31:00,
2013-02-17 05:36:00,66.4,60.7,29.97,SSW,209,0.0,0.0,82,0.00,CLR,,0.04,WeatherDisplay:10.37,2013-02-16 18:36:00,
2013-02-17 05:41:00,66.4,61.1,29.97,SW,221,0.0,0.0,83,0.00,CLR,,0.04,WeatherDisplay:10.37,2013-02-16 18:41:00,
2013-02-17 05:46:00,66.4,61.1,29.97,WSW,242,0.0,0.0,83,0.00,CLR,,0.04,WeatherDisplay:10.37,2013-02-16 18:46:00,
2013-02-17 05:51:00,66.4,61.1,29.97,SW,235,0.0,0.0,83,0.00,CLR,,0.04,WeatherDisplay:10.37,2013-02-16 18:51:00,
2013-02-17 05:56:00,66.2,60.9,29.97,SW,218,0.0,0.0,83,0.00,CLR,,0.04,WeatherDisplay:10.37,2013-02-16 18:56:00,
2013-02-17 06:01:00,66.0,60.4,29.97,WSW,240,0.0,0.0,82,0.00,CLR,,0.04,WeatherDisplay:10.37,2013-02-16 19:01:00,
2013-02-17 06:06:00,66.0,60.7,29.97,WSW,258,0.0,0.0,83,0.00,CLR,,0.04,WeatherDisplay:10.37,2013-02-16 19:06:00,
2013-02-17 06:11:00,66.0,60.7,29.97,WSW,254,0.0,0.0,83,0.00,CLR,,0.04,WeatherDisplay:10.37,2013-02-16 19:11:00,
2013-02-17 06:16:00,65.8,60.5,29.97,WSW,251,0.0,0.0,83,0.00,CLR,,0.04,WeatherDisplay:10.37,2013-02-16 19:16:00,
2013-02-17 06:21:00,65.8,60.5,29.97,WSW,241,0.0,0.0,83,0.00,CLR,,0.04,WeatherDisplay:10.37,2013-02-16 19:21:00,
2013-02-17 06:26:00,65.8,60.5,29.97,WSW,237,0.0,0.0,83,0.00,CLR,,0.04,WeatherDisplay:10.37,2013-02-16 19:26:00,
2013-02-17 06:31:00,65.7,60.4,29.98,WSW,237,0.0,0.0,83,0.00,CLR,,0.04,WeatherDisplay:10.37,2013-02-16 19:31:00,
2013-02-17 06:36:00,65.5,60.2,29.98,West,268,0.0,0.0,83,0.00,CLR,,0.04,WeatherDisplay:10.37,2013-02-16 19:36:00,
2013-02-17 06:41:00,65.5,60.2,29.98,WSW,258,0.0,0.0,83,0.00,CLR,,0.04,WeatherDisplay:10.37,2013-02-16 19:41:00,
2013-02-17 06:46:00,65.5,60.2,29.98,WSW,245,0.0,0.0,83,0.00,CLR,,0.04,WeatherDisplay:10.37,2013-02-16 19:46:00,
2013-02-17 06:51:00,65.5,60.2,29.98,West,264,0.0,0.0,83,0.00,CLR,,0.04,WeatherDisplay:10.37,2013-02-16 19:51:00,
2013-02-17 06:56:00,65.5,60.2,29.99,West,265,0.0,0.0,83,0.00,CLR,,0.04,WeatherDisplay:10.37,2013-02-16 19:56:00,
2013-02-17 07:01:00,65.5,60.5,29.99,WSW,254,0.0,0.0,84,0.00,CLR,,0.04,WeatherDisplay:10.37,2013-02-16 20:01:00,
2013-02-17 07:06:00,65.5,60.5,29.99,SW,233,0.0,0.0,84,0.00,CLR,,0.04,WeatherDisplay:10.37,2013-02-16 20:06:00,
2013-02-17 07:11:00,65.5,60.5,29.99,SW,215,0.0,0.0,84,0.00,CLR,,0.04,WeatherDisplay:10.37,2013-02-16 20:11:00,
2013-02-17 07:16:00,65.4,60.1,29.99,SSW,213,0.0,0.0,83,0.00,CLR,,0.04,WeatherDisplay:10.37,2013-02-16 20:16:00,
2013-02-17 07:21:00,65.5,60.2,29.99,SW,233,0.0,0.0,83,0.00,CLR,,0.04,WeatherDisplay:10.37,2013-02-16 20:21:00,
2013-02-17 07:26:00,65.5,60.5,29.99,SW,228,0.0,0.0,84,0.00,CLR,,0.04,WeatherDisplay:10.37,2013-02-16 20:26:00,
2013-02-17 07:31:00,65.5,60.5,29.99,SW,229,0.0,0.0,84,0.00,CLR,,0.04,WeatherDisplay:10.37,2013-02-16 20:31:00,
2013-02-17 07:36:00,65.5,60.5,29.99,SW,220,0.0,0.0,84,0.00,CLR,,0.04,WeatherDisplay:10.37,2013-02-16 20:36:00,
2013-02-17 07:41:00,65.7,60.7,29.99,SW,215,0.0,0.0,84,0.00,CLR,,0.04,WeatherDisplay:10.37,2013-02-16 20:41:00,
2013-02-17 07:46:00,65.7,60.7,29.99,SSE,158,0.0,0.0,84,0.00,CLR,,0.04,WeatherDisplay:10.37,2013-02-16 20:46:00,
2013-02-17 07:51:00,65.8,60.9,29.99,NE,48,0.0,0.0,84,0.00,CLR,,0.04,WeatherDisplay:10.37,2013-02-16 20:51:00,
2013-02-17 07:56:00,66.0,61.0,29.99,NE,39,0.0,0.0,84,0.00,CLR,,0.04,WeatherDisplay:10.37,2013-02-16 20:56:00,
2013-02-17 08:01:00,66.0,61.4,29.99,NE,39,0.0,0.0,85,0.00,CLR,,0.04,WeatherDisplay:10.37,2013-02-16 21:01:00,
2013-02-17 08:06:00,66.2,61.6,30.00,NE,41,0.0,0.0,85,0.00,CLR,,0.04,WeatherDisplay:10.37,2013-02-16 21:06:00,
2013-02-17 08:11:00,66.5,61.8,30.00,NE,45,0.0,0.0,85,0.00,CLR,,0.04,WeatherDisplay:10.37,2013-02-16 21:11:00,
2013-02-17 08:16:00,66.7,62.1,30.00,NE,48,0.0,0.0,85,0.00,CLR,,0.04,WeatherDisplay:10.37,2013-02-16 21:16:00,
2013-02-17 08:21:00,67.0,62.3,30.00,NNE,17,0.0,0.0,85,0.00,CLR,,0.04,WeatherDisplay:10.37,2013-02-16 21:21:00,
2013-02-17 08:26:00,67.6,62.9,30.00,NNE,23,0.0,0.0,85,0.00,CLR,,0.04,WeatherDisplay:10.37,2013-02-16 21:26:00,
2013-02-17 08:31:00,67.8,63.1,30.00,NNE,30,0.0,0.0,85,0.00,CLR,,0.04,WeatherDisplay:10.37,2013-02-16 21:31:00,
2013-02-17 08:36:00,68.4,63.7,30.01,NE,36,0.0,0.0,85,0.00,CLR,,0.04,WeatherDisplay:10.37,2013-02-16 21:36:00,
2013-02-17 08:41:00,68.7,64.4,30.01,NE,52,0.0,0.0,86,0.00,CLR,,0.04,WeatherDisplay:10.37,2013-02-16 21:41:00,
2013-02-17 08:46:00,69.2,64.5,30.01,NE,38,0.0,0.0,85,0.00,CLR,,0.04,WeatherDisplay:10.37,2013-02-16 21:46:00,
2013-02-17 08:51:00,69.6,64.6,30.01,NE,39,0.0,0.0,84,0.00,CLR,,0.04,WeatherDisplay:10.37,2013-02-16 21:51:00,
2013-02-17 08:56:00,70.3,65.2,30.01,ENE,59,0.0,0.0,84,0.00,CLR,,0.04,WeatherDisplay:10.37,2013-02-16 21:56:00,
2013-02-17 09:01:00,70.7,65.2,30.01,NE,52,0.0,0.0,83,0.00,CLR,,0.04,WeatherDisplay:10.37,2013-02-16 22:01:00,
2013-02-17 09:06:00,70.9,64.8,30.01,NE,47,0.0,0.0,81,0.00,CLR,,0.04,WeatherDisplay:10.37,2013-02-16 22:06:00,
2013-02-17 09:11:00,71.4,64.9,30.01,NE,47,0.0,2.0,80,0.00,CLR,,0.04,WeatherDisplay:10.37,2013-02-16 22:11:00,
2013-02-17 09:16:00,71.8,65.3,30.01,ENE,69,0.0,0.0,80,0.00,CLR,,0.04,WeatherDisplay:10.37,2013-02-16 22:16:00,
2013-02-17 09:21:00,72.3,65.4,30.01,ENE,75,0.0,2.0,79,0.00,CLR,,0.04,WeatherDisplay:10.37,2013-02-16 22:21:00,
2013-02-17 09:26:00,72.5,64.8,30.01,NNW,340,3.0,7.0,77,0.00,CLR,,0.04,WeatherDisplay:10.37,2013-02-16 22:26:00,
2013-02-17 09:31:00,72.7,64.3,30.01,West,281,0.0,7.0,75,0.00,CLR,,0.04,WeatherDisplay:10.37,2013-02-16 22:31:00,
2013-02-17 09:36:00,72.7,63.5,30.01,WSW,242,1.0,3.0,73,0.00,CLR,,0.04,WeatherDisplay:10.37,2013-02-16 22:36:00,
2013-02-17 09:41:00,72.9,63.7,30.01,South,182,1.0,5.0,73,0.00,CLR,,0.04,WeatherDisplay:10.37,2013-02-16 22:41:00,
2013-02-17 09:46:00,73.0,63.5,30.02,ESE,120,0.0,2.0,72,0.00,CLR,,0.04,WeatherDisplay:10.37,2013-02-16 22:46:00,
2013-02-17 09:51:00,73.2,63.2,30.02,NNE,24,0.0,4.0,71,0.00,CLR,,0.04,WeatherDisplay:10.37,2013-02-16 22:51:00,
2013-02-17 09:56:00,73.6,63.2,30.01,NNE,22,0.0,3.0,70,0.00,CLR,,0.04,WeatherDisplay:10.37,2013-02-16 22:56:00,
2013-02-17 10:00:00,74.3,63.9,30.02,NE,35,1.0,4.0,70,0.00,CLR,,0.04,WeatherDisplay:10.37,2013-02-16 23:00:00,
2013-02-17 10:06:00,75.0,63.7,30.01,SW,227,0.0,4.0,68,0.00,CLR,,0.04,WeatherDisplay:10.37,2013-02-16 23:06:00,
2013-02-17 10:11:00,75.6,63.8,30.02,NE,52,1.0,3.0,67,0.00,CLR,,0.04,WeatherDisplay:10.37,2013-02-16 23:11:00,
2013-02-17 10:16:00,75.9,63.7,30.01,NE,37,0.0,4.0,66,0.00,CLR,,0.04,WeatherDisplay:10.37,2013-02-16 23:16:00,
2013-02-17 10:21:00,76.3,64.1,30.01,NNE,30,1.0,4.0,66,0.00,CLR,,0.04,WeatherDisplay:10.37,2013-02-16 23:21:00,
2013-02-17 10:26:00,76.6,64.0,30.01,ENE,58,2.0,6.0,65,0.00,CLR,,0.04,WeatherDisplay:10.37,2013-02-16 23:26:00,
2013-02-17 10:31:00,76.8,63.7,30.02,ENE,64,1.0,4.0,64,0.00,CLR,,0.04,WeatherDisplay:10.37,2013-02-16 23:31:00,
2013-02-17 10:36:00,77.7,64.1,30.02,NNW,344,3.0,9.0,63,0.00,CLR,,0.04,WeatherDisplay:10.37,2013-02-16 23:36:00,
2013-02-17 10:41:00,78.5,64.9,30.01,South,191,2.0,11.0,63,0.00,CLR,,0.04,WeatherDisplay:10.37,2013-02-16 23:41:00,
2013-02-17 10:46:00,79.1,65.0,30.02,SW,224,2.0,11.0,62,0.00,CLR,,0.04,WeatherDisplay:10.37,2013-02-16 23:46:00,
2013-02-17 10:51:00,79.6,65.0,30.01,WSW,240,1.0,10.0,61,0.00,CLR,,0.04,WeatherDisplay:10.37,2013-02-16 23:51:00,
2013-02-17 10:56:00,79.4,64.3,30.02,SSW,193,3.0,7.0,60,0.00,CLR,,0.04,WeatherDisplay:10.37,2013-02-16 23:56:00,
2013-02-17 11:00:00,79.0,63.9,30.02,SSW,199,2.0,7.0,60,0.00,CLR,,0.04,WeatherDisplay:10.37,2013-02-17 00:00:00,
2013-02-17 11:06:00,78.4,63.9,30.01,SSW,198,1.0,5.0,61,0.00,CLR,,0.04,WeatherDisplay:10.37,2013-02-17 00:06:00,
2013-02-17 11:11:00,78.2,63.6,30.01,SSW,209,1.0,7.0,61,0.00,CLR,,0.04,WeatherDisplay:10.37,2013-02-17 00:11:00,
2013-02-17 11:21:00,78.3,63.7,30.01,SSW,211,1.0,3.0,61,0.00,CLR,,0.04,WeatherDisplay:10.37,2013-02-17 00:21:00,
2013-02-17 11:25:00,78.3,63.8,30.01,SSW,200,3.0,8.0,61,0.00,CLR,,0.04,WeatherDisplay:10.37,2013-02-17 00:25:00,
2013-02-17 11:31:00,78.1,63.5,30.01,SSW,207,3.0,7.0,61,0.00,CLR,,0.04,WeatherDisplay:10.37,2013-02-17 00:31:00,
2013-02-17 11:36:00,78.1,63.5,30.01,SSW,206,1.0,6.0,61,0.00,CLR,,0.04,WeatherDisplay:10.37,2013-02-17 00:36:00,
2013-02-17 11:41:00,78.1,63.5,30.01,SSE,155,1.0,6.0,61,0.00,CLR,,0.04,WeatherDisplay:10.37,2013-02-17 00:41:00,
2013-02-17 11:46:00,77.9,63.4,30.01,SSE,154,0.0,6.0,61,0.00,CLR,,0.04,WeatherDisplay:10.37,2013-02-17 00:46:00,
2013-02-17 11:55:00,77.5,63.0,30.01,SSE,159,2.0,7.0,61,0.00,CLR,,0.04,WeatherDisplay:10.37,2013-02-17 00:55:00,
2013-02-17 12:00:00,77.2,63.6,30.01,ESE,116,3.0,12.0,63,0.00,CLR,,0.04,WeatherDisplay:10.37,2013-02-17 01:00:00,
2013-02-17 12:06:00,76.3,63.7,30.01,ESE,120,1.0,12.0,65,0.00,CLR,,0.04,WeatherDisplay:10.37,2013-02-17 01:06:00,
2013-02-17 12:11:00,75.7,63.5,30.01,ENE,64,2.0,6.0,66,0.00,CLR,,0.04,WeatherDisplay:10.37,2013-02-17 01:11:00,
2013-02-17 12:15:00,75.0,63.7,30.01,North,7,1.0,5.0,68,0.00,CLR,,0.04,WeatherDisplay:10.37,2013-02-17 01:15:00,
2013-02-17 12:21:00,74.4,63.6,30.01,NNW,343,0.0,4.0,69,0.02,RA,,0.06,WeatherDisplay:10.37,2013-02-17 01:21:00,
2013-02-17 12:25:00,74.0,64.0,30.01,East,84,0.0,4.0,71,0.00,RA,,0.06,WeatherDisplay:10.37,2013-02-17 01:25:00,
2013-02-17 12:31:00,73.9,64.7,30.01,SSE,156,1.0,4.0,73,0.00,,,0.06,WeatherDisplay:10.37,2013-02-17 01:31:00,
2013-02-17 12:35:00,73.8,65.0,30.00,SW,225,2.0,5.0,74,0.00,,,0.06,WeatherDisplay:10.37,2013-02-17 01:35:00,
2013-02-17 12:41:00,74.1,65.7,30.00,SW,234,2.0,7.0,75,0.00,,,0.06,WeatherDisplay:10.37,2013-02-17 01:41:00,
2013-02-17 12:45:00,74.5,66.0,30.00,WSW,249,0.0,4.0,75,0.00,,,0.06,WeatherDisplay:10.37,2013-02-17 01:45:00,
2013-02-17 12:51:00,75.0,66.6,30.00,SW,218,1.0,4.0,75,0.00,,,0.06,WeatherDisplay:10.37,2013-02-17 01:51:00,
2013-02-17 12:56:00,75.6,67.2,30.00,SSW,212,5.0,9.0,75,0.00,,,0.06,WeatherDisplay:10.37,2013-02-17 01:56:00,
2013-02-17 13:06:00,77.3,67.2,30.00,SW,226,2.0,6.0,71,0.00,,,0.06,WeatherDisplay:10.37,2013-02-17 02:06:00,
2013-02-17 13:11:00,77.8,67.6,30.00,SW,216,2.0,11.0,71,0.00,,,0.06,WeatherDisplay:10.37,2013-02-17 02:11:00,
2013-02-17 13:15:00,78.4,67.8,30.00,SSW,210,5.0,8.0,70,0.00,,,0.06,WeatherDisplay:10.37,2013-02-17 02:15:00,
2013-02-17 13:21:00,79.0,68.3,30.00,SSW,199,2.0,8.0,70,0.00,CLR,,0.06,WeatherDisplay:10.37,2013-02-17 02:21:00,
2013-02-17 13:25:00,79.0,67.5,29.99,South,184,1.0,6.0,68,0.00,CLR,,0.06,WeatherDisplay:10.37,2013-02-17 02:25:00,
2013-02-17 13:30:00,78.8,66.9,30.00,SSE,157,1.0,7.0,67,0.00,CLR,,0.06,WeatherDisplay:10.37,2013-02-17 02:30:00,
2013-02-17 13:35:00,79.0,67.5,29.99,ESE,110,1.0,5.0,68,0.00,CLR,,0.06,WeatherDisplay:10.37,2013-02-17 02:35:00,
2013-02-17 13:41:00,79.4,67.1,29.99,South,184,1.0,8.0,66,0.00,CLR,,0.06,WeatherDisplay:10.37,2013-02-17 02:41:00,
2013-02-17 13:45:00,79.3,67.0,29.99,SSW,209,1.0,8.0,66,0.00,CLR,,0.06,WeatherDisplay:10.37,2013-02-17 02:45:00,
2013-02-17 13:50:00,79.5,67.2,29.99,SSW,201,1.0,6.0,66,0.00,CLR,,0.06,WeatherDisplay:10.37,2013-02-17 02:50:00,
2013-02-17 13:56:00,80.2,67.4,29.98,South,178,0.0,3.0,65,0.00,CLR,,0.06,WeatherDisplay:10.37,2013-02-17 02:56:00,
2013-02-17 14:00:00,80.5,67.2,29.98,SE,125,1.0,7.0,64,0.00,CLR,,0.06,WeatherDisplay:10.37,2013-02-17 03:00:00,
2013-02-17 14:05:00,81.0,67.2,29.99,NNE,28,1.0,11.0,63,0.00,CLR,,0.06,WeatherDisplay:10.37,2013-02-17 03:05:00,
2013-02-17 14:11:00,80.8,66.5,29.99,SSW,210,1.0,9.0,62,0.00,CLR,,0.06,WeatherDisplay:10.37,2013-02-17 03:11:00,
2013-02-17 14:15:00,80.3,66.1,29.98,WSW,251,5.0,8.0,62,0.00,CLR,,0.06,WeatherDisplay:10.37,2013-02-17 03:15:00,
2013-02-17 14:20:00,80.2,66.5,29.98,SSW,197,2.0,6.0,63,0.00,CLR,,0.06,WeatherDisplay:10.37,2013-02-17 03:20:00,
2013-02-17 14:25:00,80.4,66.2,29.98,WNW,289,2.0,7.0,62,0.00,CLR,,0.06,WeatherDisplay:10.37,2013-02-17 03:25:00,
2013-02-17 14:31:00,80.8,66.1,29.98,South,191,2.0,7.0,61,0.00,CLR,,0.06,WeatherDisplay:10.37,2013-02-17 03:31:00,
2013-02-17 14:36:00,81.0,65.8,29.99,SSW,210,2.0,9.0,60,0.00,CLR,,0.06,WeatherDisplay:10.37,2013-02-17 03:36:00,
2013-02-17 14:41:00,80.4,65.3,29.98,WNW,288,3.0,10.0,60,0.00,CLR,,0.06,WeatherDisplay:10.37,2013-02-17 03:41:00,
2013-02-17 14:45:00,79.9,64.8,29.98,WNW,293,1.0,9.0,60,0.00,CLR,,0.06,WeatherDisplay:10.37,2013-02-17 03:45:00,
2013-02-17 14:51:00,79.5,64.9,29.98,WNW,285,1.0,5.0,61,0.00,CLR,,0.06,WeatherDisplay:10.37,2013-02-17 03:51:00,
2013-02-17 14:55:00,79.3,64.2,29.98,ENE,57,1.0,6.0,60,0.00,CLR,,0.06,WeatherDisplay:10.37,2013-02-17 03:55:00,
2013-02-17 15:01:00,79.0,64.4,29.98,ENE,73,2.0,5.0,61,0.00,CLR,,0.06,WeatherDisplay:10.37,2013-02-17 04:01:00,
2013-02-17 15:05:00,78.4,63.9,29.98,WSW,258,2.0,5.0,61,0.00,CLR,,0.06,WeatherDisplay:10.37,2013-02-17 04:05:00,
2013-02-17 15:11:00,78.1,63.6,29.97,WNW,295,5.0,6.0,61,0.00,CLR,,0.06,WeatherDisplay:10.37,2013-02-17 04:11:00,
2013-02-17 15:15:00,78.5,63.9,29.98,NW,323,2.0,7.0,61,0.00,CLR,,0.06,WeatherDisplay:10.37,2013-02-17 04:15:00,
2013-02-17 15:21:00,78.6,64.0,29.97,North,351,3.0,7.0,61,0.00,CLR,,0.06,WeatherDisplay:10.37,2013-02-17 04:21:00,
2013-02-17 15:25:00,78.6,63.5,29.97,West,263,1.0,8.0,60,0.00,CLR,,0.06,WeatherDisplay:10.37,2013-02-17 04:25:00,
2013-02-17 15:30:00,78.6,64.0,29.97,NW,326,5.0,11.0,61,0.00,CLR,,0.06,WeatherDisplay:10.37,2013-02-17 04:30:00,
2013-02-17 15:35:00,79.0,63.9,29.97,North,4,2.0,11.0,60,0.00,CLR,,0.06,WeatherDisplay:10.37,2013-02-17 04:35:00,
2013-02-17 15:40:00,78.6,63.6,29.97,SE,127,1.0,9.0,60,0.00,CLR,,0.06,WeatherDisplay:10.37,2013-02-17 04:40:00,
2013-02-17 15:45:00,78.4,63.4,29.97,West,274,0.0,12.0,60,0.00,CLR,,0.06,WeatherDisplay:10.37,2013-02-17 04:45:00,
2013-02-17 15:50:00,78.1,63.1,29.96,North,5,1.0,6.0,60,0.00,CLR,,0.06,WeatherDisplay:10.37,2013-02-17 04:50:00,
2013-02-17 15:55:00,78.0,63.0,29.96,North,353,3.0,11.0,60,0.00,CLR,,0.06,WeatherDisplay:10.37,2013-02-17 04:55:00,
2013-02-17 16:01:00,78.1,63.1,29.96,North,356,3.0,16.0,60,0.00,CLR,,0.06,WeatherDisplay:10.37,2013-02-17 05:01:00,
2013-02-17 16:10:00,78.1,63.1,29.96,ENE,57,1.0,6.0,60,0.00,CLR,,0.06,WeatherDisplay:10.37,2013-02-17 05:10:00,
2013-02-17 16:15:00,78.0,63.0,29.96,NW,310,1.0,6.0,60,0.00,CLR,,0.06,WeatherDisplay:10.37,2013-02-17 05:15:00,
2013-02-17 16:20:00,77.7,62.7,29.96,SW,216,3.0,6.0,60,0.00,CLR,,0.06,WeatherDisplay:10.37,2013-02-17 05:20:00,
2013-02-17 16:25:00,77.5,62.6,29.96,SSW,202,1.0,6.0,60,0.00,CLR,,0.06,WeatherDisplay:10.37,2013-02-17 05:25:00,
2013-02-17 16:30:00,77.4,62.4,29.96,SW,231,1.0,7.0,60,0.00,CLR,,0.06,WeatherDisplay:10.37,2013-02-17 05:30:00,
2013-02-17 16:35:00,77.4,62.4,29.96,SSW,211,1.0,5.0,60,0.00,CLR,,0.06,WeatherDisplay:10.37,2013-02-17 05:35:00,
2013-02-17 16:40:00,77.5,62.5,29.96,NNW,331,0.0,5.0,60,0.00,CLR,,0.06,WeatherDisplay:10.37,2013-02-17 05:40:00,
2013-02-17 16:45:00,77.3,62.3,29.96,ENE,71,0.0,5.0,60,0.00,CLR,,0.06,WeatherDisplay:10.37,2013-02-17 05:45:00,
2013-02-17 16:51:00,77.2,62.2,29.97,NE,51,1.0,4.0,60,0.00,CLR,,0.06,WeatherDisplay:10.37,2013-02-17 05:51:00,
2013-02-17 16:55:00,77.2,62.2,29.96,East,80,1.0,4.0,60,0.00,CLR,,0.06,WeatherDisplay:10.37,2013-02-17 05:55:00,
2013-02-17 17:00:00,77.2,62.2,29.96,SSW,197,1.0,8.0,60,0.00,CLR,,0.06,WeatherDisplay:10.37,2013-02-17 06:00:00,
2013-02-17 17:05:00,77.0,62.0,29.96,SSE,167,1.0,7.0,60,0.00,CLR,,0.06,WeatherDisplay:10.37,2013-02-17 06:05:00,
2013-02-17 17:11:00,77.0,61.6,29.96,ENE,59,1.0,7.0,59,0.00,CLR,,0.06,WeatherDisplay:10.37,2013-02-17 06:11:00,
2013-02-17 17:15:00,76.8,61.4,29.97,ESE,123,1.0,5.0,59,0.00,CLR,,0.06,WeatherDisplay:10.37,2013-02-17 06:15:00,
2013-02-17 17:21:00,76.9,61.5,29.96,East,98,3.0,7.0,59,0.00,CLR,,0.06,WeatherDisplay:10.37,2013-02-17 06:21:00,
2013-02-17 17:25:00,77.0,61.6,29.96,East,91,1.0,6.0,59,0.00,CLR,,0.06,WeatherDisplay:10.37,2013-02-17 06:25:00,
2013-02-17 17:30:00,77.3,61.8,29.96,SE,132,2.0,7.0,59,0.00,CLR,,0.06,WeatherDisplay:10.37,2013-02-17 06:30:00,
2013-02-17 17:35:00,77.5,62.0,29.96,SE,141,1.0,5.0,59,0.00,CLR,,0.06,WeatherDisplay:10.37,2013-02-17 06:35:00,
2013-02-17 17:41:00,77.4,61.9,29.96,ENE,61,2.0,7.0,59,0.00,CLR,,0.06,WeatherDisplay:10.37,2013-02-17 06:41:00,
2013-02-17 17:45:00,77.2,61.7,29.96,ENE,64,2.0,5.0,59,0.00,CLR,,0.06,WeatherDisplay:10.37,2013-02-17 06:45:00,
2013-02-17 17:51:00,76.8,61.4,29.96,NNW,342,0.0,6.0,59,0.00,CLR,,0.06,WeatherDisplay:10.37,2013-02-17 06:51:00,
2013-02-17 17:55:00,76.8,61.4,29.95,NW,316,1.0,3.0,59,0.00,CLR,,0.06,WeatherDisplay:10.37,2013-02-17 06:55:00,
2013-02-17 18:00:00,76.8,61.9,29.95,WNW,294,2.0,7.0,60,0.00,CLR,,0.06,WeatherDisplay:10.37,2013-02-17 07:00:00,
2013-02-17 18:05:00,77.0,61.6,29.95,SW,224,1.0,5.0,59,0.00,CLR,,0.06,WeatherDisplay:10.37,2013-02-17 07:05:00,
2013-02-17 18:11:00,77.0,61.6,29.95,WSW,254,1.0,3.0,59,0.00,CLR,,0.06,WeatherDisplay:10.37,2013-02-17 07:11:00,
2013-02-17 18:15:00,77.0,61.1,29.95,NE,52,1.0,4.0,58,0.00,CLR,,0.06,WeatherDisplay:10.37,2013-02-17 07:15:00,
2013-02-17 18:20:00,76.8,60.9,29.95,NNE,22,1.0,5.0,58,0.00,CLR,,0.06,WeatherDisplay:10.37,2013-02-17 07:20:00,
2013-02-17 18:26:00,76.8,60.9,29.95,NNE,16,1.0,3.0,58,0.00,CLR,,0.06,WeatherDisplay:10.37,2013-02-17 07:26:00,
2013-02-17 18:35:00,76.6,60.8,29.95,NE,55,1.0,5.0,58,0.00,CLR,,0.06,WeatherDisplay:10.37,2013-02-17 07:35:00,
2013-02-17 18:40:00,76.3,60.4,29.95,ESE,120,0.0,8.0,58,0.00,CLR,,0.06,WeatherDisplay:10.37,2013-02-17 07:40:00,
2013-02-17 18:45:00,76.0,60.2,29.95,NW,308,1.0,8.0,58,0.00,CLR,,0.06,WeatherDisplay:10.37,2013-02-17 07:45:00,
2013-02-17 18:50:00,75.9,60.0,29.95,NNW,340,0.0,3.0,58,0.00,CLR,,0.06,WeatherDisplay:10.37,2013-02-17 07:50:00,
2013-02-17 18:56:00,75.7,60.4,29.95,NE,54,2.0,5.0,59,0.00,CLR,,0.06,WeatherDisplay:10.37,2013-02-17 07:56:00,
2013-02-17 19:06:00,75.4,60.1,29.95,ENE,68,0.0,2.0,59,0.00,CLR,,0.06,WeatherDisplay:10.37,2013-02-17 08:06:00,
2013-02-17 19:15:00,75.0,59.7,29.95,NNE,21,1.0,2.0,59,0.00,CLR,,0.06,WeatherDisplay:10.37,2013-02-17 08:15:00,
2013-02-17 19:20:00,74.8,60.0,29.95,East,84,0.0,2.0,60,0.00,CLR,,0.06,WeatherDisplay:10.37,2013-02-17 08:20:00,
2013-02-17 19:25:00,74.5,59.7,29.95,East,81,0.0,1.0,60,0.00,CLR,,0.06,WeatherDisplay:10.37,2013-02-17 08:25:00,
2013-02-17 19:30:00,74.5,59.7,29.95,ENE,73,0.0,4.0,60,0.00,CLR,,0.06,WeatherDisplay:10.37,2013-02-17 08:30:00,
2013-02-17 19:35:00,74.3,59.5,29.95,ENE,70,0.0,0.0,60,0.00,CLR,,0.06,WeatherDisplay:10.37,2013-02-17 08:35:00,
2013-02-17 19:40:00,74.1,59.3,29.95,NE,34,0.0,0.0,60,0.00,CLR,,0.06,WeatherDisplay:10.37,2013-02-17 08:40:00,
2013-02-17 19:45:00,73.9,59.2,29.95,NE,53,0.0,0.0,60,0.00,CLR,,0.06,WeatherDisplay:10.37,2013-02-17 08:45:00,
2013-02-17 19:50:00,73.9,59.6,29.96,ESE,119,0.0,0.0,61,0.00,CLR,,0.06,WeatherDisplay:10.37,2013-02-17 08:50:00,
2013-02-17 19:55:00,73.8,59.5,29.96,South,173,0.0,0.0,61,0.00,CLR,,0.06,WeatherDisplay:10.37,2013-02-17 08:55:00,
2013-02-17 20:00:00,73.6,59.8,29.95,SSW,194,0.0,1.0,62,0.00,CLR,,0.06,WeatherDisplay:10.37,2013-02-17 09:00:00,
2013-02-17 20:05:00,73.2,59.4,29.95,SSW,202,0.0,0.0,62,0.00,CLR,,0.06,WeatherDisplay:10.37,2013-02-17 09:05:00,
2013-02-17 20:10:00,73.2,59.4,29.95,SSW,207,0.0,0.0,62,0.00,CLR,,0.06,WeatherDisplay:10.37,2013-02-17 09:10:00,
2013-02-17 20:15:00,73.0,59.7,29.95,SSW,207,0.0,0.0,63,0.00,CLR,,0.06,WeatherDisplay:10.37,2013-02-17 09:15:00,
2013-02-17 20:20:00,72.7,59.4,29.95,SSW,196,0.0,0.0,63,0.00,CLR,,0.06,WeatherDisplay:10.37,2013-02-17 09:20:00,
2013-02-17 20:26:00,72.7,59.4,29.95,SSW,198,0.0,0.0,63,0.00,CLR,,0.06,WeatherDisplay:10.37,2013-02-17 09:26:00,
2013-02-17 20:30:00,72.5,59.2,29.96,SSW,198,0.0,0.0,63,0.00,CLR,,0.06,WeatherDisplay:10.37,2013-02-17 09:30:00,
2013-02-17 20:35:00,72.3,59.0,29.96,SSW,199,0.0,0.0,63,0.00,CLR,,0.06,WeatherDisplay:10.37,2013-02-17 09:35:00,
2013-02-17 20:40:00,72.3,59.5,29.96,SSW,203,0.0,0.0,64,0.00,CLR,,0.06,WeatherDisplay:10.37,2013-02-17 09:40:00,
2013-02-17 20:45:00,72.3,59.5,29.96,SSW,200,0.0,0.0,64,0.00,CLR,,0.06,WeatherDisplay:10.37,2013-02-17 09:45:00,
2013-02-17 20:50:00,72.1,59.3,29.96,SSW,194,0.0,0.0,64,0.00,CLR,,0.06,WeatherDisplay:10.37,2013-02-17 09:50:00,
2013-02-17 20:55:00,72.1,59.7,29.96,SSW,194,0.0,0.0,65,0.00,CLR,,0.06,WeatherDisplay:10.37,2013-02-17 09:55:00,
2013-02-17 21:00:00,72.0,59.6,29.96,SSW,196,0.0,0.0,65,0.00,CLR,,0.06,WeatherDisplay:10.37,2013-02-17 10:00:00,
2013-02-17 21:05:00,71.8,59.8,29.96,SSW,198,0.0,0.0,66,0.00,CLR,,0.06,WeatherDisplay:10.37,2013-02-17 10:05:00,
2013-02-17 21:10:00,71.8,59.8,29.96,SSW,199,0.0,0.0,66,0.00,CLR,,0.06,WeatherDisplay:10.37,2013-02-17 10:10:00,
2013-02-17 21:15:00,71.6,59.6,29.97,SSW,201,0.0,0.0,66,0.00,CLR,,0.06,WeatherDisplay:10.37,2013-02-17 10:15:00,
2013-02-17 21:20:00,71.4,59.5,29.97,SSW,201,0.0,0.0,66,0.00,CLR,,0.06,WeatherDisplay:10.37,2013-02-17 10:20:00,
2013-02-17 21:25:00,71.4,59.9,29.97,SSW,198,0.0,0.0,67,0.00,CLR,,0.06,WeatherDisplay:10.37,2013-02-17 10:25:00,
2013-02-17 21:30:00,71.4,59.9,29.97,SSW,201,0.0,0.0,67,0.00,CLR,,0.06,WeatherDisplay:10.37,2013-02-17 10:30:00,
2013-02-17 21:35:00,71.3,59.8,29.96,SSW,203,0.0,0.0,67,0.00,CLR,,0.06,WeatherDisplay:10.37,2013-02-17 10:35:00,
2013-02-17 21:41:00,71.2,59.7,29.97,SSW,209,0.0,0.0,67,0.00,CLR,,0.06,WeatherDisplay:10.37,2013-02-17 10:41:00,
2013-02-17 21:45:00,71.2,59.7,29.97,SSW,207,0.0,0.0,67,0.00,CLR,,0.06,WeatherDisplay:10.37,2013-02-17 10:45:00,
2013-02-17 21:50:00,71.2,59.6,29.97,West,279,0.0,0.0,67,0.00,CLR,,0.06,WeatherDisplay:10.37,2013-02-17 10:50:00,
2013-02-17 21:55:00,70.9,59.8,29.98,North,358,0.0,0.0,68,0.00,CLR,,0.06,WeatherDisplay:10.37,2013-02-17 10:55:00,
2013-02-17 22:00:00,70.9,59.8,29.98,NNW,329,0.0,0.0,68,0.00,CLR,,0.06,WeatherDisplay:10.37,2013-02-17 11:00:00,
2013-02-17 22:05:00,70.8,59.7,29.97,West,261,0.0,0.0,68,0.00,CLR,,0.06,WeatherDisplay:10.37,2013-02-17 11:05:00,
2013-02-17 22:11:00,70.7,60.0,29.98,WSW,248,0.0,0.0,69,0.00,CLR,,0.06,WeatherDisplay:10.37,2013-02-17 11:11:00,
2013-02-17 22:15:00,70.5,59.9,29.98,WSW,258,0.0,0.0,69,0.00,CLR,,0.06,WeatherDisplay:10.37,2013-02-17 11:15:00,
2013-02-17 22:20:00,70.5,59.9,29.97,West,280,0.0,0.0,69,0.00,CLR,,0.06,WeatherDisplay:10.37,2013-02-17 11:20:00,
2013-02-17 22:25:00,70.3,59.7,29.98,NW,309,0.0,0.0,69,0.00,CLR,,0.06,WeatherDisplay:10.37,2013-02-17 11:25:00,
2013-02-17 22:31:00,70.3,60.1,29.97,NNW,332,0.0,0.0,70,0.00,CLR,,0.06,WeatherDisplay:10.37,2013-02-17 11:31:00,
2013-02-17 22:35:00,70.3,60.1,29.97,NW,320,0.0,0.0,70,0.00,CLR,,0.06,WeatherDisplay:10.37,2013-02-17 11:35:00,
2013-02-17 22:40:00,70.3,60.5,29.97,WSW,247,0.0,0.0,71,0.00,CLR,,0.06,WeatherDisplay:10.37,2013-02-17 11:40:00,
2013-02-17 22:45:00,70.2,60.3,29.97,SSW,204,0.0,0.0,71,0.00,CLR,,0.06,WeatherDisplay:10.37,2013-02-17 11:45:00,
2013-02-17 22:50:00,70.0,60.1,29.97,SSW,202,0.0,0.0,71,0.00,CLR,,0.06,WeatherDisplay:10.37,2013-02-17 11:50:00,
2013-02-17 22:55:00,70.0,60.1,29.97,South,170,0.0,0.0,71,0.00,CLR,,0.06,WeatherDisplay:10.37,2013-02-17 11:55:00,
2013-02-17 23:00:00,69.6,59.8,29.97,NNE,14,0.0,0.0,71,0.00,CLR,,0.06,WeatherDisplay:10.37,2013-02-17 12:00:00,
2013-02-17 23:05:00,69.6,59.8,29.97,NNW,336,0.0,0.0,71,0.00,CLR,,0.06,WeatherDisplay:10.37,2013-02-17 12:05:00,
2013-02-17 23:10:00,69.4,60.0,29.97,WNW,302,0.0,2.0,72,0.00,CLR,,0.06,WeatherDisplay:10.37,2013-02-17 12:10:00,
2013-02-17 23:15:00,69.1,59.7,29.97,West,264,0.0,3.0,72,0.00,CLR,,0.06,WeatherDisplay:10.37,2013-02-17 12:15:00,
2013-02-17 23:20:00,69.1,60.1,29.97,WSW,245,0.0,2.0,73,0.00,CLR,,0.06,WeatherDisplay:10.37,2013-02-17 12:20:00,
2013-02-17 23:25:00,69.1,60.1,29.97,WSW,248,1.0,2.0,73,0.00,CLR,,0.06,WeatherDisplay:10.37,2013-02-17 12:25:00,
2013-02-17 23:30:00,69.1,59.7,29.96,WSW,243,0.0,2.0,72,0.00,CLR,,0.06,WeatherDisplay:10.37,2013-02-17 12:30:00,
2013-02-17 23:36:00,69.2,59.8,29.96,SW,229,2.0,3.0,72,0.00,CLR,,0.06,WeatherDisplay:10.37,2013-02-17 12:36:00,
2013-02-17 23:40:00,69.3,59.9,29.96,SW,220,1.0,3.0,72,0.00,CLR,,0.06,WeatherDisplay:10.37,2013-02-17 12:40:00,
2013-02-17 23:45:00,69.3,59.8,29.96,SSW,210,0.0,2.0,72,0.00,CLR,,0.06,WeatherDisplay:10.37,2013-02-17 12:45:00,
2013-02-17 23:50:00,69.3,59.9,29.97,WNW,290,0.0,0.0,72,0.00,CLR,,0.06,WeatherDisplay:10.37,2013-02-17 12:50:00,
2013-02-17 23:55:00,69.1,60.1,29.97,NNE,16,0.0,0.0,73,0.00,CLR,,0.06,WeatherDisplay:10.37,2013-02-17 12:55:00,